Time;durP1;ratioP1;P1;durP2;ratioP2;P2;SDS_P1;SDS_P2;PMS_P1;PMS_P2;Temp;Humidity;BMP_temperature;BMP_pressure;BME280_temperature;BME280_humidity;BME280_pressure;Samples;Min_cycle;Max_cycle;Signal;HPM_P1;HPM_P2
2022/06/17 00:01:56;;;;;;;4.60;3.75;;;13.70;99.90;;;-144.05;64.89;125687.94;6188784;23;20043;-86
2022/06/17 00:04:22;;;;;;;4.80;3.72;;;13.60;99.90;;;-144.05;65.24;125687.94;6186881;23;20301;-86
2022/06/17 00:07:06;;;;;;;6.18;4.00;;;13.50;99.90;;;-144.05;65.83;125687.94;6186389;23;20542;-87
2022/06/17 00:09:36;;;;;;;5.72;3.92;;;13.40;99.90;;;-144.05;66.05;125687.94;6186074;23;20005;-87
2022/06/17 00:12:11;;;;;;;6.38;3.70;;;13.30;99.90;;;-144.05;66.18;125687.94;6187349;23;20088;-85
2022/06/17 00:17:23;;;;;;;6.85;4.28;;;13.30;99.90;;;-144.05;66.91;125687.94;6188053;23;20016;-87
2022/06/17 00:19:49;;;;;;;6.30;3.80;;;13.30;99.90;;;-144.05;66.77;125687.94;6186681;23;20017;-86
2022/06/17 00:22:15;;;;;;;4.95;3.53;;;13.20;99.90;;;-144.05;67.32;125687.94;6188018;23;20016;-87
2022/06/17 00:24:41;;;;;;;6.82;3.88;;;13.20;99.90;;;-144.05;67.61;125687.94;6187289;23;20013;-84
2022/06/17 00:27:12;;;;;;;5.18;4.30;;;13.10;99.90;;;-144.05;68.06;125687.94;6188436;23;20071;-85
2022/06/17 00:29:38;;;;;;;5.47;3.92;;;13.10;99.90;;;-144.05;68.46;125687.94;6188817;23;20005;-86
2022/06/17 00:32:05;;;;;;;5.20;4.03;;;13.00;99.90;;;-144.05;68.75;125687.94;6187477;23;20064;-85
2022/06/17 00:34:31;;;;;;;6.47;4.15;;;13.00;99.90;;;-144.05;69.41;125687.94;6187629;23;20005;-86
2022/06/17 00:37:02;;;;;;;5.72;4.55;;;12.90;99.90;;;-144.05;69.76;125687.94;6188351;23;20005;-87
2022/06/17 00:39:34;;;;;;;7.38;4.53;;;12.90;99.90;;;-144.05;70.37;125687.94;6189950;23;20012;-86
2022/06/17 00:42:09;;;;;;;5.95;4.60;;;12.90;99.90;;;-144.05;70.93;125687.94;6188160;23;20013;-87
2022/06/17 00:45:05;;;;;;;7.22;4.65;;;12.90;99.90;;;-144.05;71.92;125687.94;6203982;23;20005;-86
2022/06/17 00:47:48;;;;;;;9.13;5.18;;;12.90;99.90;;;-144.05;71.87;125687.94;6208363;23;20268;-88
2022/06/17 00:50:44;;;;;;;7.18;5.32;;;12.90;99.90;;;-144.05;72.16;125687.94;6210241;23;19999;-83
2022/06/17 00:53:22;;;;;;;7.05;5.00;;;13.00;99.90;;;-144.05;71.60;125687.94;6192703;23;20028;-86
2022/06/17 00:56:15;;;;;;;7.25;4.97;;;13.20;99.90;;;-144.05;70.67;125687.94;6186267;23;20009;-87
2022/06/17 00:58:58;;;;;;;6.93;4.53;;;13.30;99.90;;;-144.05;70.51;125687.94;6185609;23;20005;-87
2022/06/17 01:01:27;;;;;;;4.50;3.70;;;13.30;99.90;;;-144.05;70.58;125687.94;6186111;23;20020;-85
2022/06/17 01:04:01;;;;;;;7.00;4.20;;;13.20;99.90;;;-144.05;70.71;125687.94;6189777;23;20009;-88
2022/06/17 01:06:41;;;;;;;5.25;3.83;;;13.10;99.90;;;-144.05;71.16;125687.94;6200487;23;20009;-87
2022/06/17 01:12:14;;;;;;;6.57;4.07;;;12.90;99.90;;;-144.05;71.75;125687.94;6187766;23;20051;-86
2022/06/17 01:14:42;;;;;;;7.30;4.95;;;12.80;99.90;;;-144.05;72.58;125687.94;6185801;23;20096;-86
2022/06/17 01:17:23;;;;;;;7.22;4.63;;;12.70;99.90;;;-144.05;72.65;125687.94;6187822;23;20019;-85
2022/06/17 01:19:56;;;;;;;7.97;4.55;;;12.60;99.90;;;-144.05;73.28;125687.94;6185621;23;20072;-87
2022/06/17 01:22:27;;;;;;;6.53;4.88;;;12.60;99.90;;;-144.05;73.72;125687.94;6187649;23;20012;-87
2022/06/17 01:25:21;;;;;;;6.80;5.13;;;12.50;99.90;;;-144.05;74.31;125687.94;6185807;23;20009;-86
2022/06/17 01:27:58;;;;;;;7.45;4.68;;;12.50;99.90;;;-144.05;74.69;125687.94;6185761;23;20005;-86
2022/06/17 01:30:51;;;;;;;7.47;4.45;;;12.50;99.90;;;-144.05;74.51;125687.94;6185975;23;20021;-86
2022/06/17 01:33:35;;;;;;;5.25;4.22;;;12.50;99.90;;;-144.05;74.14;125687.94;6187338;23;20321;-85
2022/06/17 01:36:15;;;;;;;5.28;4.30;;;12.50;99.90;;;-144.05;74.19;125687.94;6186160;23;20005;-85
2022/06/17 01:38:50;;;;;;;5.47;3.90;;;12.50;99.90;;;-144.05;74.33;125687.94;6185628;23;20111;-85
2022/06/17 01:41:23;;;;;;;7.90;5.15;;;12.50;99.90;;;-144.05;74.76;125687.94;6185478;23;20067;-86
2022/06/17 01:44:19;;;;;;;6.95;4.80;;;12.50;99.90;;;-144.05;75.00;125687.94;6185545;23;20005;-87
2022/06/17 01:46:54;;;;;;;7.70;4.85;;;12.40;99.90;;;-144.05;75.13;125687.94;6187442;23;20010;-86
2022/06/17 01:49:29;;;;;;;6.75;4.25;;;12.40;99.90;;;-144.05;75.06;125687.94;6185811;23;20387;-85
2022/06/17 01:52:25;;;;;;;6.50;4.95;;;12.50;99.90;;;-144.05;74.15;125687.94;6185603;23;20005;-85
2022/06/17 01:55:20;;;;;;;6.90;4.55;;;12.70;99.90;;;-144.05;73.05;125687.94;6187520;23;20001;-85
2022/06/17 01:58:22;;;;;;;5.85;3.97;;;12.90;99.90;;;-144.05;72.35;125687.94;6186279;23;20005;-86
2022/06/17 02:00:48;;;;;;;8.75;4.82;;;12.90;99.90;;;-144.05;72.20;125687.94;6187619;23;20036;-85
2022/06/17 02:03:28;;;;;;;5.07;4.07;;;13.00;99.90;;;-144.05;72.15;125687.94;6186264;23;20032;-85
2022/06/17 02:06:38;;;;;;;7.82;4.78;;;13.00;99.90;;;-144.05;72.15;125687.94;6185747;23;20059;-87
2022/06/17 02:09:04;;;;;;;9.93;5.35;;;12.90;99.90;;;-144.05;72.09;125687.94;6187121;23;20009;-85
2022/06/17 02:11:33;;;;;;;6.18;4.28;;;12.90;99.90;;;-144.05;72.14;125687.94;6186501;23;20043;-86
2022/06/17 02:14:06;;;;;;;4.80;4.10;;;12.90;99.90;;;-144.05;72.24;125687.94;6186350;23;20012;-85
2022/06/17 02:16:42;;;;;;;7.50;5.15;;;12.90;99.90;;;-144.05;72.28;125687.94;6186937;23;20083;-86
2022/06/17 02:19:10;;;;;;;7.45;3.97;;;12.80;99.90;;;-144.05;72.61;125687.94;6186846;23;20023;-86
2022/06/17 02:21:54;;;;;;;4.90;3.88;;;12.70;99.90;;;-144.05;72.83;125687.94;6211925;23;20013;-86
2022/06/17 02:24:21;;;;;;;6.72;5.05;;;12.50;99.90;;;-144.05;73.32;125687.94;6186949;23;20009;-85
2022/06/17 02:26:49;;;;;;;6.10;4.63;;;12.50;99.90;;;-144.05;73.72;125687.94;6187122;23;20068;-87
2022/06/17 02:29:18;;;;;;;7.53;4.45;;;12.40;99.90;;;-144.05;74.22;125687.94;6188822;23;20005;-85
2022/06/17 02:31:47;;;;;;;6.75;3.80;;;12.40;99.90;;;-144.05;74.24;125687.94;6189090;23;20005;-85
2022/06/17 02:34:19;;;;;;;5.35;4.18;;;12.30;99.90;;;-144.05;74.42;125687.94;6186761;23;20009;-87
2022/06/17 02:37:06;;;;;;;7.35;4.60;;;12.30;99.90;;;-144.05;75.07;125687.94;6186775;23;20069;-86
2022/06/17 02:39:43;;;;;;;6.80;4.50;;;12.30;99.90;;;-144.05;75.52;125687.94;6188276;23;20012;-83
2022/06/17 02:42:35;;;;;;;5.03;4.50;;;12.20;99.90;;;-144.05;76.00;125687.94;6187938;23;20013;-84
2022/06/17 02:45:24;;;;;;;5.03;4.45;;;12.20;99.90;;;-144.05;75.62;125687.94;6200680;23;20009;-83
2022/06/17 02:47:53;;;;;;;5.15;3.90;;;12.20;99.90;;;-144.05;75.62;125687.94;6203732;23;20035;-88
2022/06/17 02:50:28;;;;;;;5.95;4.78;;;12.10;99.90;;;-144.05;75.73;125687.94;6195617;23;20012;-86
2022/06/17 02:52:58;;;;;;;5.32;3.97;;;12.00;99.90;;;-144.05;76.14;125687.94;6187949;23;20380;-86
2022/06/17 02:55:42;;;;;;;7.10;4.55;;;12.10;99.90;;;-144.05;76.45;125687.94;6187921;23;20066;-87
2022/06/17 02:58:35;;;;;;;6.70;5.13;;;12.00;99.90;;;-144.05;76.77;125687.94;6196814;23;20009;-87
2022/06/17 03:01:03;;;;;;;4.35;3.90;;;11.90;99.90;;;-144.05;76.75;125687.94;6197222;23;20005;-87
2022/06/17 03:03:30;;;;;;;7.50;4.80;;;11.90;99.90;;;-144.05;76.74;125687.94;6185318;23;20008;-87
2022/06/17 03:05:57;;;;;;;6.80;4.90;;;11.90;99.90;;;-144.05;76.97;125687.94;6184880;23;20120;-86
2022/06/17 03:08:29;;;;;;;6.97;4.80;;;11.80;99.90;;;-144.05;77.35;125687.94;6187413;23;20005;-87
2022/06/17 03:11:01;;;;;;;6.07;4.85;;;11.80;99.90;;;-144.05;77.27;125687.94;6185819;23;20343;-85
2022/06/17 03:13:38;;;;;;;5.53;4.85;;;11.80;99.90;;;-144.05;77.72;125687.94;6187822;23;20008;-85
2022/06/17 03:16:12;;;;;;;5.53;4.60;;;11.80;99.90;;;-144.05;77.69;125687.94;6185887;23;20013;-85
2022/06/17 03:18:40;;;;;;;7.00;5.32;;;11.70;99.90;;;-144.05;78.19;125687.94;6185825;23;20446;-86
2022/06/17 03:21:06;;;;;;;6.60;5.05;;;11.70;99.90;;;-144.05;78.15;125687.94;6185429;23;20037;-87
2022/06/17 03:23:54;;;;;;;6.70;4.78;;;11.70;99.90;;;-144.05;78.42;125687.94;6185631;23;20009;-88
2022/06/17 03:26:57;;;;;;;6.97;5.32;;;11.70;99.90;;;-144.05;78.32;125687.94;6185710;23;20009;-86
2022/06/17 03:29:27;;;;;;;6.20;5.38;;;11.80;99.90;;;-144.05;78.46;125687.94;6186550;23;20016;-88
2022/06/17 03:32:06;;;;;;;6.15;4.80;;;11.80;99.90;;;-144.05;78.56;125687.94;6188005;23;20005;-86
2022/06/17 03:34:47;;;;;;;8.23;4.72;;;11.80;99.90;;;-144.05;78.59;125687.94;6188526;23;20439;-86
2022/06/17 03:37:38;;;;;;;6.70;4.95;;;11.80;99.90;;;-144.05;78.75;125687.94;6187064;23;20028;-86
2022/06/17 03:40:15;;;;;;;6.60;4.50;;;11.90;99.90;;;-144.05;78.54;125687.94;6186762;23;20059;-85
2022/06/17 03:43:11;;;;;;;6.40;5.20;;;11.90;99.90;;;-144.05;78.75;125687.94;6186850;23;20013;-86
2022/06/17 03:46:05;;;;;;;8.23;5.45;;;11.90;99.90;;;-144.05;78.56;125687.94;6185533;23;20001;-86
2022/06/17 03:48:51;;;;;;;6.97;5.38;;;12.00;99.90;;;-144.05;78.43;125687.94;6184398;23;20035;-86
2022/06/17 03:51:23;;;;;;;8.40;5.85;;;12.10;99.90;;;-144.05;77.93;125687.94;6186968;23;20005;-86
2022/06/17 03:53:52;;;;;;;6.80;5.05;;;12.20;99.90;;;-144.05;77.87;125687.94;6186328;23;20092;-87
2022/06/17 03:56:43;;;;;;;8.30;4.85;;;12.30;99.90;;;-144.05;77.54;125687.94;6187843;23;20486;-86
2022/06/17 03:59:19;;;;;;;7.63;5.05;;;12.50;99.90;;;-144.05;77.04;125687.94;6187810;23;20012;-86
2022/06/17 04:01:55;;;;;;;6.97;5.10;;;12.60;99.90;;;-144.05;76.29;125687.94;6185720;23;20019;-87
2022/06/17 04:04:39;;;;;;;5.82;4.68;;;12.70;99.90;;;-144.05;76.09;125687.94;6187895;23;20301;-87
2022/06/17 04:07:12;;;;;;;5.82;4.80;;;12.80;99.90;;;-144.05;75.70;125687.94;6185850;23;20020;-87
2022/06/17 04:09:45;;;;;;;5.55;4.97;;;12.90;99.90;;;-144.05;75.43;125687.94;6184926;23;20035;-88
2022/06/17 04:12:12;;;;;;;7.00;4.25;;;13.00;99.90;;;-144.05;74.64;125687.94;6184894;23;20005;-87
2022/06/17 04:15:34;;;;;;;8.68;4.72;;;13.20;99.90;;;-144.05;74.38;125687.94;6186058;23;20033;-86
2022/06/17 04:18:00;;;;;;;8.77;4.90;;;13.30;99.90;;;-144.05;73.50;125687.94;6185645;23;20072;-88
2022/06/17 04:20:40;;;;;;;7.90;5.10;;;13.40;99.90;;;-144.05;72.76;125687.94;6187868;23;20009;-86
2022/06/17 04:23:26;;;;;;;6.93;4.47;;;13.50;99.90;;;-144.05;70.78;125687.94;6188647;23;20435;-87
2022/06/17 04:26:18;;;;;;;6.53;4.30;;;13.70;99.90;;;-144.05;70.32;125687.94;6185602;23;20005;-88
2022/06/17 04:28:59;;;;;;;8.73;4.75;;;13.90;99.90;;;-144.05;69.11;125687.94;6187075;23;20009;-86
2022/06/17 04:31:29;;;;;;;9.60;4.30;;;14.10;99.90;;;-144.05;69.07;125687.94;6188902;23;20103;-86
2022/06/17 04:34:07;;;;;;;6.88;3.90;;;14.20;99.90;;;-144.05;68.27;125687.94;6186004;23;20453;-86
2022/06/17 04:36:46;;;;;;;7.38;4.05;;;14.40;99.90;;;-144.05;67.43;125687.94;6186654;23;20431;-87
2022/06/17 04:39:35;;;;;;;5.47;4.20;;;14.50;99.90;;;-144.05;67.01;125687.94;6186660;23;20044;-86
2022/06/17 04:42:16;;;;;;;6.70;4.47;;;14.60;99.90;;;-144.05;66.90;125687.94;6190078;23;20035;-85
2022/06/17 04:44:43;;;;;;;5.43;3.85;;;14.70;99.90;;;-144.05;66.62;125687.94;6191268;23;20011;-86
2022/06/17 04:47:21;;;;;;;6.72;4.70;;;14.70;99.90;;;-144.05;66.21;125687.94;6189821;23;20017;-87
2022/06/17 04:50:03;;;;;;;4.07;3.55;;;14.80;99.90;;;-144.05;66.19;125687.94;6190406;23;20013;-90
2022/06/17 04:52:36;;;;;;;8.75;4.43;;;14.80;99.90;;;-144.05;65.52;125687.94;6195485;23;20386;-86
2022/06/17 04:55:14;;;;;;;8.35;4.60;;;14.90;99.90;;;-144.05;65.36;125687.94;6206637;23;20009;-86
2022/06/17 04:57:42;;;;;;;8.18;4.68;;;14.90;99.90;;;-144.05;65.53;125687.94;6190025;23;20012;-83
2022/06/17 05:00:30;;;;;;;4.88;3.63;;;14.90;99.90;;;-144.05;65.75;125687.94;6187160;23;20009;-83
2022/06/17 05:02:57;;;;;;;7.22;4.53;;;14.90;99.90;;;-144.05;65.56;125687.94;6215944;23;20009;-88
2022/06/17 05:05:39;;;;;;;7.07;4.57;;;14.90;99.90;;;-144.05;65.05;125687.94;6191314;23;20013;-86
2022/06/17 05:08:17;;;;;;;7.25;4.65;;;15.00;99.90;;;-144.05;64.08;125687.94;6191754;23;20028;-87
2022/06/17 05:10:54;;;;;;;6.40;4.53;;;15.30;99.90;;;-144.05;62.37;125687.94;6191437;23;20002;-88
2022/06/17 05:13:39;;;;;;;4.80;4.30;;;15.70;99.90;;;-144.05;61.70;125687.94;6189924;23;20005;-88
2022/06/17 05:16:12;;;;;;;14.07;4.25;;;16.00;99.90;;;-144.05;60.36;125687.94;6188123;23;20031;-85
2022/06/17 05:18:39;;;;;;;5.95;3.90;;;16.40;99.90;;;-144.05;57.88;125687.94;6189287;23;20008;-87
2022/06/17 05:21:07;;;;;;;6.32;3.75;;;16.70;99.90;;;-144.05;56.78;125687.94;6188924;23;20495;-86
2022/06/17 05:23:34;;;;;;;5.85;4.03;;;17.00;99.90;;;-144.05;56.21;125687.94;6188118;23;20435;-87
2022/06/17 05:26:00;;;;;;;6.07;3.88;;;17.30;99.90;;;-144.05;55.63;125687.94;6188350;23;20383;-87
2022/06/17 05:28:27;;;;;;;6.55;4.28;;;17.60;99.90;;;-144.05;54.00;125687.94;6187777;23;20075;-87
2022/06/17 05:30:56;;;;;;;5.22;3.38;;;17.90;99.90;;;-144.05;53.35;125687.94;6188877;23;20059;-87
2022/06/17 05:33:23;;;;;;;5.60;3.00;;;18.20;99.90;;;-144.05;52.67;125687.94;6190165;23;20431;-87
2022/06/17 05:35:50;;;;;;;3.30;2.65;;;18.50;99.90;;;-144.05;51.74;125687.94;6188442;23;20012;-86
2022/06/17 05:38:16;;;;;;;4.38;3.03;;;18.90;99.90;;;-144.05;50.44;125687.94;6189323;23;20091;-87
2022/06/17 05:40:43;;;;;;;7.70;3.50;;;19.10;99.90;;;-144.05;49.69;125687.94;6188381;23;20016;-87
2022/06/17 05:43:12;;;;;;;6.80;3.15;;;19.20;99.90;;;-144.05;48.63;125687.94;6188288;23;20359;-90
2022/06/17 05:45:46;;;;;;;4.93;2.80;;;19.50;99.90;;;-144.05;48.53;125687.94;6190123;23;20032;-86
2022/06/17 05:48:12;;;;;;;4.35;2.45;;;19.50;99.90;;;-144.05;48.94;125687.94;6187320;23;20040;-87
2022/06/17 05:50:38;;;;;;;3.80;2.53;;;19.70;99.90;;;-144.05;48.30;125687.94;6188977;23;20084;-88
2022/06/17 05:53:10;;;;;;;7.32;2.47;;;20.10;99.90;;;-144.05;47.03;125687.94;6186636;23;20009;-85
2022/06/17 05:55:38;;;;;;;5.07;2.70;;;20.30;99.90;;;-144.05;46.08;125687.94;6186751;23;20009;-87
2022/06/17 05:58:19;;;;;;;4.55;2.40;;;20.90;99.90;;;-144.05;45.20;125687.94;6187385;23;20009;-88
2022/06/17 06:00:47;;;;;;;5.38;2.50;;;21.50;99.90;;;-144.05;43.28;125687.94;6186956;23;20083;-87
2022/06/17 06:03:28;;;;;;;3.42;1.88;;;21.90;99.90;;;-144.05;42.69;125687.94;6190173;23;20005;-84
2022/06/17 06:05:59;;;;;;;5.07;2.15;;;22.10;99.90;;;-144.05;42.93;125687.94;6206574;23;20013;-88
2022/06/17 06:08:25;;;;;;;4.82;2.45;;;22.10;99.90;;;-144.05;43.11;125687.94;6194082;23;20115;-87
2022/06/17 06:10:54;;;;;;;6.40;2.17;;;21.80;99.90;;;-144.05;42.94;125687.94;6190509;23;20008;-90
2022/06/17 06:13:23;;;;;;;6.35;2.22;;;21.40;99.90;;;-144.05;44.11;125687.94;6190169;23;20005;-89
2022/06/17 06:15:57;;;;;;;3.72;2.20;;;21.00;99.90;;;-144.05;45.22;125687.94;6188469;23;20072;-88
2022/06/17 06:18:37;;;;;;;6.25;2.20;;;20.70;99.90;;;-144.05;45.64;125687.94;6189149;23;20419;-87
2022/06/17 06:21:06;;;;;;;5.18;2.50;;;20.40;99.90;;;-144.05;45.91;125687.94;6188900;23;20009;-86
2022/06/17 06:23:39;;;;;;;3.63;1.85;;;20.40;99.90;;;-144.05;44.96;125687.94;6190489;23;20073;-88
2022/06/17 06:26:09;;;;;;;2.78;1.90;;;20.80;99.90;;;-144.05;43.01;125687.94;6190023;23;20016;-87
2022/06/17 06:28:38;;;;;;;3.45;1.80;;;21.50;99.90;;;-144.05;42.55;125687.94;6189544;23;20009;-88
2022/06/17 06:31:11;;;;;;;3.05;1.60;;;22.20;99.90;;;-144.05;41.60;125687.94;6191465;23;20005;-87
2022/06/17 06:33:40;;;;;;;4.18;1.90;;;22.80;99.90;;;-144.05;38.85;125687.94;6192583;23;20378;-87
2022/06/17 06:36:06;;;;;;;4.25;1.60;;;23.30;94.80;;;-144.05;38.77;125687.94;6192207;23;20111;-87
2022/06/17 06:38:32;;;;;;;5.07;2.00;;;23.50;94.00;;;-144.05;37.08;125687.94;6192000;23;20013;-88
2022/06/17 06:41:01;;;;;;;5.10;1.55;;;24.10;89.30;;;-144.05;36.96;125687.94;6191147;23;20439;-87
2022/06/17 06:43:27;;;;;;;3.75;1.83;;;24.50;86.70;;;-144.05;36.51;125687.94;6190197;23;20009;-89
2022/06/17 06:45:53;;;;;;;4.22;1.58;;;24.80;83.30;;;-144.05;35.37;125687.94;6215296;23;20013;-85
2022/06/17 06:48:24;;;;;;;3.47;1.50;;;25.00;78.60;;;-144.05;34.64;125687.94;6202846;23;20490;-84
2022/06/17 06:50:52;;;;;;;2.45;1.70;;;25.20;74.40;;;-144.05;34.95;125687.94;6195020;23;20027;-88
2022/06/17 06:53:18;;;;;;;2.78;1.40;;;25.30;73.90;;;-144.05;34.90;125687.94;6191541;23;20060;-84
2022/06/17 06:55:45;;;;;;;4.35;1.50;;;25.00;72.90;;;-144.05;35.05;125687.94;6187984;23;20009;-85
2022/06/17 06:58:16;;;;;;;2.30;1.40;;;25.20;73.70;;;-144.05;34.20;125687.94;6188470;23;20474;-87
2022/06/17 07:00:51;;;;;;;2.70;1.52;;;25.40;71.70;;;-144.05;34.27;125687.94;6190982;23;20011;-87
2022/06/17 07:03:19;;;;;;;1.88;1.27;;;25.30;70.70;;;-144.05;33.94;125687.94;6189993;23;20009;-87
2022/06/17 07:06:03;;;;;;;3.65;1.33;;;25.40;69.70;;;-144.05;34.22;125687.94;6189862;23;20001;-87
2022/06/17 07:08:35;;;;;;;5.50;1.58;;;24.80;68.90;;;-144.05;35.19;125687.94;6216516;23;20036;-87
2022/06/17 07:11:06;;;;;;;3.83;1.60;;;24.20;70.90;;;-144.05;36.52;125687.94;6192192;23;20005;-86
2022/06/17 07:13:39;;;;;;;3.35;1.10;;;23.70;75.10;;;-144.05;36.45;125687.94;6192533;23;20019;-88
2022/06/17 07:16:06;;;;;;;1.45;1.20;;;23.90;76.10;;;-144.05;35.95;125687.94;6195465;23;20009;-85
2022/06/17 07:18:36;;;;;;;3.45;1.42;;;23.90;74.60;;;-144.05;35.42;125687.94;6205945;23;20004;-86
2022/06/17 07:21:10;;;;;;;4.72;1.50;;;24.20;74.50;;;-144.05;34.86;125687.94;6205466;23;20009;-81
2022/06/17 07:23:43;;;;;;;2.80;1.25;;;24.50;73.00;;;-144.05;34.43;125687.94;6205552;23;20052;-84
2022/06/17 07:26:18;;;;;;;3.60;1.40;;;25.00;71.90;;;-144.05;33.23;125687.94;6201330;23;20023;-85
2022/06/17 07:28:48;;;;;;;;;;;25.70;69.20;;;-144.05;32.44;125687.94;6192238;23;20444;-87
2022/06/17 07:31:17;;;;;;;2.40;1.30;;;26.30;67.80;;;-144.05;32.04;125687.94;6192798;23;19904;-86
2022/06/17 07:33:43;;;;;;;5.10;1.65;;;26.40;67.10;;;-144.05;31.88;125687.94;6194180;23;20017;-86
2022/06/17 07:42:37;;;;;;;3.88;1.30;;;26.70;63.10;;;-144.05;31.60;125687.94;6198154;23;20070;-85
2022/06/17 07:45:13;;;;;;;3.42;1.48;;;26.70;63.70;;;-144.05;31.38;125687.94;6187549;23;20005;-84
2022/06/17 07:47:42;;;;;;;2.60;1.27;;;26.60;61.80;;;-144.05;31.17;125687.94;6188830;23;20034;-85
2022/06/17 07:50:16;;;;;;;2.28;1.20;;;26.80;62.40;;;-144.05;31.06;125687.94;6186941;23;20005;-86
2022/06/17 07:52:46;;;;;;;2.78;1.40;;;26.80;60.70;;;-144.05;30.63;125687.94;6187887;23;20075;-87
2022/06/17 07:55:14;;;;;;;4.95;1.80;;;27.00;60.50;;;-144.05;30.40;125687.94;6187981;23;20055;-85
2022/06/17 07:57:44;;;;;;;3.13;1.70;;;27.00;60.00;;;-144.05;29.55;125687.94;6188484;23;20056;-86
2022/06/17 08:00:30;;;;;;;4.72;1.77;;;27.10;57.50;;;-144.05;29.41;125687.94;6187592;23;20077;-86
2022/06/17 08:02:57;;;;;;;5.18;1.27;;;27.10;56.90;;;-144.05;30.05;125687.94;6188170;23;20122;-86
2022/06/17 08:05:34;;;;;;;4.80;1.77;;;27.20;59.40;;;-144.05;30.37;125687.94;6190297;23;20555;-85
2022/06/17 08:08:03;;;;;;;4.45;1.40;;;27.40;58.80;;;-144.05;30.06;125687.94;6193487;23;20040;-83
2022/06/17 08:10:40;;;;;;;3.25;1.60;;;27.60;58.60;;;-144.05;30.20;125687.94;6195546;23;20004;-87
2022/06/17 08:13:08;;;;;;;3.15;1.40;;;27.60;58.30;;;-144.05;29.65;125687.94;6206992;23;20005;-85
2022/06/17 08:15:36;;;;;;;5.60;1.50;;;27.60;57.40;;;-144.05;30.67;125687.94;6194456;23;20020;-88
2022/06/17 08:18:02;;;;;;;3.97;1.63;;;27.30;58.70;;;-144.05;30.16;125687.94;6193593;23;20008;-87
2022/06/17 08:20:34;;;;;;;4.60;1.50;;;27.20;58.20;;;-144.05;29.92;125687.94;6192475;23;20016;-87
2022/06/17 08:23:05;;;;;;;6.07;1.80;;;27.40;58.20;;;-144.05;29.52;125687.94;6192531;23;20059;-89
2022/06/17 08:25:34;;;;;;;2.97;1.70;;;27.40;57.00;;;-144.05;29.24;125687.94;6192590;23;20434;-87
2022/06/17 08:28:06;;;;;;;4.43;2.03;;;27.60;56.60;;;-144.05;29.62;125687.94;6191886;23;20099;-87
2022/06/17 08:30:43;;;;;;;3.03;1.67;;;28.10;57.90;;;-144.05;28.71;125687.94;6193242;23;20033;-87
2022/06/17 08:33:10;;;;;;;3.60;1.50;;;28.50;56.10;;;-144.05;28.94;125687.94;6192594;23;20040;-86
2022/06/17 08:35:49;;;;;;;2.60;1.58;;;28.60;56.40;;;-144.05;28.99;125687.94;6192191;23;20092;-88
2022/06/17 08:38:29;;;;;;;13.98;8.57;;;28.60;55.40;;;-144.05;28.64;125687.94;6192435;23;20015;-88
2022/06/17 08:40:59;;;;;;;4.53;2.25;;;28.90;55.20;;;-144.05;28.52;125687.94;6196173;23;20088;-86
2022/06/17 08:43:43;;;;;;;5.40;1.95;;;29.30;56.70;;;-144.05;28.35;125687.94;6204499;23;20066;-87
2022/06/17 08:47:18;;;;;;;7.25;2.25;;;29.00;54.20;;;-144.05;28.17;125687.94;6194263;23;20044;-87
2022/06/17 08:50:05;;;;;;;6.28;2.03;;;28.70;54.50;;;-144.05;28.97;125687.94;6187689;23;20108;-87
2022/06/17 08:53:30;;;;;;;5.07;2.03;;;28.40;55.20;;;-144.05;29.36;125687.94;6192305;23;20100;-87
2022/06/17 08:56:37;;;;;;;4.00;1.55;;;28.20;54.90;;;-144.05;29.17;125687.94;6193091;23;20080;-88
2022/06/17 08:59:18;;;;;;;7.15;2.35;;;28.40;56.20;;;-144.05;29.91;125687.94;6162947;23;20013;-86
2022/06/17 09:02:00;;;;;;;3.22;1.90;;;28.30;56.60;;;-144.05;30.69;125687.94;6192596;23;20013;-85
2022/06/17 09:05:35;;;;;;;2.65;1.60;;;28.20;58.70;;;-144.05;29.68;125687.94;6191345;23;20009;-86
2022/06/17 09:08:44;;;;;;;4.13;1.92;;;28.30;56.40;;;-144.05;29.99;125687.94;6187034;23;20020;-87
2022/06/17 09:11:20;;;;;;;6.38;1.90;;;28.60;57.80;;;-144.05;29.07;125687.94;6192592;23;20059;-88
2022/06/17 09:14:20;;;;;;;2.63;1.67;;;28.80;56.30;;;-144.05;29.08;125687.94;6190071;23;20079;-84
2022/06/17 09:16:56;;;;;;;3.97;2.03;;;28.90;55.60;;;-144.05;29.30;125687.94;6190133;23;20005;-85
2022/06/17 09:19:40;;;;;;;3.67;2.20;;;28.80;55.50;;;-144.05;29.29;125687.94;6188511;23;20005;-86
2022/06/17 09:22:26;;;;;;;3.33;1.73;;;28.70;55.50;;;-144.05;29.11;125687.94;6192558;23;20065;-85
2022/06/17 09:25:04;;;;;;;3.15;1.63;;;28.60;54.90;;;-144.05;28.99;125687.94;6232978;22;20017;-88
2022/06/17 09:27:39;;;;;;;3.90;1.65;;;28.70;55.70;;;-144.05;29.43;125687.94;6193323;23;20300;-89
2022/06/17 09:30:13;;;;;;;4.57;1.60;;;28.40;56.10;;;-144.05;28.76;125687.94;6191340;23;20019;-86
2022/06/17 09:36:39;;;;;;;3.72;1.60;;;28.20;56.80;;;-144.05;29.49;125687.94;6188506;23;20469;-89
2022/06/17 13:02:01;;;;;;;0.88;0.70;;;30.70;44.90;;;-144.05;24.37;125687.94;6159930;23;20021;-84
2022/06/17 13:05:34;;;;;;;2.28;1.00;;;30.80;43.60;;;-144.05;24.48;125687.94;6069397;23;20015;-84
2022/06/17 13:08:35;;;;;;;1.88;0.80;;;31.50;43.40;;;-144.05;24.35;125687.94;6134693;23;20032;-86
2022/06/17 13:11:49;;;;;;;2.30;0.90;;;31.50;43.50;;;-144.05;24.47;125687.94;6143253;23;20009;-83
2022/06/17 13:14:57;;;;;;;2.25;0.95;;;31.60;44.10;;;-144.05;24.49;125687.94;6137520;23;20025;-84
2022/06/17 13:17:58;;;;;;;3.53;0.77;;;32.00;43.00;;;-144.05;23.69;125687.94;6132167;23;20009;-85
2022/06/17 13:21:07;;;;;;;3.03;1.10;;;31.90;41.30;;;-144.05;24.33;125687.94;6138872;23;20024;-85
2022/06/17 13:24:16;;;;;;;0.70;0.70;;;31.70;42.10;;;-144.05;24.51;125687.94;6131151;23;20041;-85
2022/06/17 13:27:05;;;;;;;1.35;0.90;;;31.70;43.70;;;-144.05;24.53;125687.94;6133979;23;20431;-85
2022/06/17 13:30:06;;;;;;;3.00;0.90;;;31.40;42.40;;;-144.05;24.15;125687.94;6136969;23;20040;-86
2022/06/17 13:32:44;;;;;;;1.10;0.73;;;31.10;42.40;;;-144.05;24.64;125687.94;6135704;23;20029;-84
2022/06/17 13:35:30;;;;;;;3.67;1.00;;;31.10;43.70;;;-144.05;25.13;125687.94;6161173;23;20060;-85
2022/06/17 13:38:11;;;;;;;2.15;0.70;;;31.10;43.70;;;-144.05;24.25;125687.94;6149074;23;20013;-82
2022/06/17 13:40:44;;;;;;;2.20;0.95;;;31.50;43.90;;;-144.05;23.62;125687.94;6155878;23;20009;-85
2022/06/17 13:43:31;;;;;;;1.70;0.80;;;31.60;42.40;;;-144.05;24.70;125687.94;6156177;23;20375;-85
2022/06/17 13:46:23;;;;;;;1.05;0.82;;;31.60;44.10;;;-144.05;23.71;125687.94;6154912;23;20017;-87
2022/06/17 13:49:04;;;;;;;0.77;0.77;;;31.70;41.80;;;-144.05;23.55;125687.94;6155868;23;20465;-85
2022/06/17 13:52:00;;;;;;;1.77;1.13;;;31.90;41.60;;;-144.05;23.38;125687.94;6181134;23;20308;-84
2022/06/17 13:54:57;;;;;;;1.15;0.63;;;31.80;40.70;;;-144.05;23.34;125687.94;6179929;23;20005;-85
2022/06/17 13:57:58;;;;;;;1.10;0.90;;;31.60;41.30;;;-144.05;23.74;125687.94;6155749;23;20491;-87
2022/06/17 14:01:08;;;;;;;1.00;0.80;;;31.70;42.30;;;-144.05;23.79;125687.94;6155866;23;20009;-87
2022/06/17 14:03:54;;;;;;;1.40;0.70;;;31.60;41.70;;;-144.05;24.09;125687.94;6112244;23;20020;-85
2022/06/17 14:06:29;;;;;;;;;;;31.40;42.20;;;-144.05;23.78;125687.94;6155846;23;20014;-84
2022/06/17 14:09:21;;;;;;;3.17;0.80;;;31.20;41.30;;;-144.05;24.47;125687.94;6158364;23;20267;-85
2022/06/17 14:11:49;;;;;;;0.93;0.80;;;31.30;43.50;;;-144.05;22.72;125687.94;6180783;23;20140;-85
2022/06/17 14:14:18;;;;;;;0.88;0.70;;;31.60;39.90;;;-144.05;22.92;125687.94;6156657;23;20401;-86
2022/06/17 14:17:13;;;;;;;1.17;0.70;;;31.60;40.00;;;-144.05;23.64;125687.94;6156234;23;20012;-86
2022/06/17 14:20:15;;;;;;;1.08;0.60;;;31.30;40.60;;;-144.05;24.11;125687.94;6156207;23;20009;-85
2022/06/17 14:23:25;;;;;;;2.45;0.75;;;31.10;42.20;;;-144.05;23.35;125687.94;6181016;23;20005;-85
2022/06/17 14:26:01;;;;;;;2.75;0.70;;;31.10;41.30;;;-144.05;23.79;125687.94;6155897;23;20013;-85